CSK3 weather

Public forecast

Using degrees Celsius for public forecast. Weather courtesy of forecast.io.

Closest aviation weather report (METAR) to Montreal / Mascouche Airport

Closest report is MontrĂ©al / Saint-Hubert Airport, 14.3 nm (26.4 km) SSE. Retrieved 2020/08/12 12:00 UTC (47 minutes ago):

CYHU 121200Z AUTO 25007KT 9SM FEW070 23/21 A2998 RMK SLP152 DENSITY ALT 900FT

Closest aviation forecast (TAF) to Montreal / Mascouche Airport

Closest forecast is MontrĂ©al / Saint-Hubert Airport, 14.3 nm (26.4 km) SSE. Retrieved 2020/08/12 12:42 UTC (5 minutes ago):

TAF CYHU 121138Z 1212/1312 24007KT P6SM SKC TEMPO 1212/1213 5SM BR FM121500 25010KT P6SM FEW030 BECMG 1215/1217 25010G20KT BECMG 1300/1302 30005KT RMK FCST BASED ON AUTO OBS NXT FCST BY 121800Z